sensor_id;sensor_type;location;lat;lon;timestamp;P1;durP1;ratioP1;P2;durP2;ratioP2
46755;SDS011;32506;52.826;-1.192;2023-03-05T00:00:48;6.13;;;4.30;;
46755;SDS011;32506;52.826;-1.192;2023-03-05T00:03:13;6.43;;;4.00;;
46755;SDS011;32506;52.826;-1.192;2023-03-05T00:05:39;6.13;;;4.38;;
46755;SDS011;32506;52.826;-1.192;2023-03-05T00:08:04;7.10;;;4.22;;
46755;SDS011;32506;52.826;-1.192;2023-03-05T00:10:30;5.68;;;4.28;;
46755;SDS011;32506;52.826;-1.192;2023-03-05T00:12:55;7.53;;;4.97;;
46755;SDS011;32506;52.826;-1.192;2023-03-05T00:15:21;6.57;;;4.00;;
46755;SDS011;32506;52.826;-1.192;2023-03-05T00:17:46;4.97;;;4.05;;
46755;SDS011;32506;52.826;-1.192;2023-03-05T00:20:12;7.28;;;4.45;;
46755;SDS011;32506;52.826;-1.192;2023-03-05T00:22:37;6.13;;;4.68;;
46755;SDS011;32506;52.826;-1.192;2023-03-05T00:25:04;6.15;;;4.15;;
46755;SDS011;32506;52.826;-1.192;2023-03-05T00:27:30;6.70;;;4.35;;
46755;SDS011;32506;52.826;-1.192;2023-03-05T00:29:55;4.90;;;3.97;;
46755;SDS011;32506;52.826;-1.192;2023-03-05T00:32:21;6.97;;;4.35;;
46755;SDS011;32506;52.826;-1.192;2023-03-05T00:34:46;7.38;;;4.32;;
46755;SDS011;32506;52.826;-1.192;2023-03-05T00:37:13;8.15;;;4.60;;
46755;SDS011;32506;52.826;-1.192;2023-03-05T00:39:39;6.95;;;4.55;;
46755;SDS011;32506;52.826;-1.192;2023-03-05T00:42:05;6.47;;;4.00;;
46755;SDS011;32506;52.826;-1.192;2023-03-05T00:44:31;7.07;;;4.47;;
46755;SDS011;32506;52.826;-1.192;2023-03-05T00:46:56;5.70;;;3.92;;
46755;SDS011;32506;52.826;-1.192;2023-03-05T00:49:22;6.43;;;4.60;;
46755;SDS011;32506;52.826;-1.192;2023-03-05T00:51:47;5.85;;;3.50;;
46755;SDS011;32506;52.826;-1.192;2023-03-05T00:54:12;6.20;;;4.05;;
46755;SDS011;32506;52.826;-1.192;2023-03-05T00:56:38;5.60;;;4.10;;
46755;SDS011;32506;52.826;-1.192;2023-03-05T00:59:03;6.68;;;4.55;;
46755;SDS011;32506;52.826;-1.192;2023-03-05T01:01:29;6.75;;;4.43;;
46755;SDS011;32506;52.826;-1.192;2023-03-05T01:03:54;5.60;;;3.83;;
46755;SDS011;32506;52.826;-1.192;2023-03-05T01:06:24;5.50;;;3.72;;
46755;SDS011;32506;52.826;-1.192;2023-03-05T01:08:49;6.90;;;4.63;;
46755;SDS011;32506;52.826;-1.192;2023-03-05T01:11:15;7.40;;;4.45;;
46755;SDS011;32506;52.826;-1.192;2023-03-05T01:13:40;7.03;;;4.60;;
46755;SDS011;32506;52.826;-1.192;2023-03-05T01:16:06;9.00;;;5.38;;
46755;SDS011;32506;52.826;-1.192;2023-03-05T01:18:32;6.63;;;4.82;;
46755;SDS011;32506;52.826;-1.192;2023-03-05T01:20:58;7.38;;;4.25;;
46755;SDS011;32506;52.826;-1.192;2023-03-05T01:23:23;6.63;;;4.70;;
46755;SDS011;32506;52.826;-1.192;2023-03-05T01:25:56;6.53;;;4.95;;
46755;SDS011;32506;52.826;-1.192;2023-03-05T01:28:22;5.95;;;4.30;;
46755;SDS011;32506;52.826;-1.192;2023-03-05T01:30:48;7.32;;;4.53;;
46755;SDS011;32506;52.826;-1.192;2023-03-05T01:33:14;6.47;;;4.78;;
46755;SDS011;32506;52.826;-1.192;2023-03-05T01:35:39;5.65;;;4.47;;
46755;SDS011;32506;52.826;-1.192;2023-03-05T01:38:05;6.75;;;4.68;;
46755;SDS011;32506;52.826;-1.192;2023-03-05T01:40:31;6.60;;;5.10;;
46755;SDS011;32506;52.826;-1.192;2023-03-05T01:43:00;8.23;;;5.50;;
46755;SDS011;32506;52.826;-1.192;2023-03-05T01:45:37;7.93;;;5.00;;
46755;SDS011;32506;52.826;-1.192;2023-03-05T01:48:03;6.60;;;5.28;;
46755;SDS011;32506;52.826;-1.192;2023-03-05T01:50:28;7.30;;;5.03;;
46755;SDS011;32506;52.826;-1.192;2023-03-05T01:52:56;10.63;;;5.50;;
46755;SDS011;32506;52.826;-1.192;2023-03-05T01:55:26;8.93;;;5.57;;
46755;SDS011;32506;52.826;-1.192;2023-03-05T01:57:58;8.88;;;5.50;;
46755;SDS011;32506;52.826;-1.192;2023-03-05T02:00:28;9.13;;;5.57;;
46755;SDS011;32506;52.826;-1.192;2023-03-05T02:03:00;8.35;;;5.82;;
46755;SDS011;32506;52.826;-1.192;2023-03-05T02:05:30;10.55;;;5.60;;
46755;SDS011;32506;52.826;-1.192;2023-03-05T02:08:01;10.10;;;6.72;;
46755;SDS011;32506;52.826;-1.192;2023-03-05T02:10:36;9.52;;;6.32;;
46755;SDS011;32506;52.826;-1.192;2023-03-05T02:13:04;8.00;;;5.68;;
46755;SDS011;32506;52.826;-1.192;2023-03-05T02:15:32;9.05;;;5.95;;
46755;SDS011;32506;52.826;-1.192;2023-03-05T02:17:58;10.27;;;6.10;;
46755;SDS011;32506;52.826;-1.192;2023-03-05T02:20:26;8.88;;;6.50;;
46755;SDS011;32506;52.826;-1.192;2023-03-05T02:22:54;9.27;;;6.32;;
46755;SDS011;32506;52.826;-1.192;2023-03-05T02:25:21;11.98;;;6.72;;
46755;SDS011;32506;52.826;-1.192;2023-03-05T02:30:24;12.20;;;7.28;;
46755;SDS011;32506;52.826;-1.192;2023-03-05T02:32:50;12.50;;;6.90;;
46755;SDS011;32506;52.826;-1.192;2023-03-05T02:35:15;10.40;;;7.10;;
46755;SDS011;32506;52.826;-1.192;2023-03-05T02:37:41;9.65;;;6.85;;
46755;SDS011;32506;52.826;-1.192;2023-03-05T02:40:07;8.85;;;6.38;;
46755;SDS011;32506;52.826;-1.192;2023-03-05T02:42:33;11.55;;;6.88;;
46755;SDS011;32506;52.826;-1.192;2023-03-05T02:45:00;8.55;;;6.18;;
46755;SDS011;32506;52.826;-1.192;2023-03-05T02:47:26;8.60;;;6.28;;
46755;SDS011;32506;52.826;-1.192;2023-03-05T02:49:52;9.68;;;6.80;;
46755;SDS011;32506;52.826;-1.192;2023-03-05T02:52:18;8.27;;;6.80;;
46755;SDS011;32506;52.826;-1.192;2023-03-05T02:54:43;10.73;;;6.32;;
46755;SDS011;32506;52.826;-1.192;2023-03-05T02:57:09;10.68;;;6.97;;
46755;SDS011;32506;52.826;-1.192;2023-03-05T02:59:34;11.00;;;6.55;;
46755;SDS011;32506;52.826;-1.192;2023-03-05T03:02:00;8.98;;;6.53;;
46755;SDS011;32506;52.826;-1.192;2023-03-05T03:04:25;7.18;;;6.05;;
46755;SDS011;32506;52.826;-1.192;2023-03-05T03:06:51;10.70;;;7.20;;
46755;SDS011;32506;52.826;-1.192;2023-03-05T03:09:16;11.00;;;6.75;;
46755;SDS011;32506;52.826;-1.192;2023-03-05T03:11:42;12.02;;;7.47;;
46755;SDS011;32506;52.826;-1.192;2023-03-05T03:14:07;10.68;;;7.95;;
46755;SDS011;32506;52.826;-1.192;2023-03-05T03:16:33;11.25;;;6.97;;
46755;SDS011;32506;52.826;-1.192;2023-03-05T03:18:58;8.85;;;6.70;;
46755;SDS011;32506;52.826;-1.192;2023-03-05T03:21:24;10.23;;;5.90;;
46755;SDS011;32506;52.826;-1.192;2023-03-05T03:23:51;9.15;;;6.25;;
46755;SDS011;32506;52.826;-1.192;2023-03-05T03:26:16;8.85;;;6.45;;
46755;SDS011;32506;52.826;-1.192;2023-03-05T03:28:43;11.60;;;7.05;;
46755;SDS011;32506;52.826;-1.192;2023-03-05T03:31:09;8.85;;;6.47;;
46755;SDS011;32506;52.826;-1.192;2023-03-05T03:33:34;10.80;;;6.22;;
46755;SDS011;32506;52.826;-1.192;2023-03-05T03:36:00;9.27;;;7.07;;
46755;SDS011;32506;52.826;-1.192;2023-03-05T03:38:26;9.05;;;5.95;;
46755;SDS011;32506;52.826;-1.192;2023-03-05T03:40:51;9.63;;;6.40;;
46755;SDS011;32506;52.826;-1.192;2023-03-05T03:43:17;10.35;;;6.63;;
46755;SDS011;32506;52.826;-1.192;2023-03-05T03:45:42;11.57;;;6.05;;
46755;SDS011;32506;52.826;-1.192;2023-03-05T03:48:09;7.93;;;6.32;;
46755;SDS011;32506;52.826;-1.192;2023-03-05T03:50:37;8.55;;;4.93;;
46755;SDS011;32506;52.826;-1.192;2023-03-05T03:53:04;8.85;;;5.55;;
46755;SDS011;32506;52.826;-1.192;2023-03-05T03:55:29;9.05;;;5.95;;
46755;SDS011;32506;52.826;-1.192;2023-03-05T03:57:54;8.65;;;5.57;;
46755;SDS011;32506;52.826;-1.192;2023-03-05T04:00:20;8.25;;;5.30;;
46755;SDS011;32506;52.826;-1.192;2023-03-05T04:02:46;9.55;;;5.85;;
46755;SDS011;32506;52.826;-1.192;2023-03-05T04:05:11;8.57;;;5.82;;
46755;SDS011;32506;52.826;-1.192;2023-03-05T04:07:37;8.07;;;5.53;;
46755;SDS011;32506;52.826;-1.192;2023-03-05T04:10:02;10.05;;;6.25;;
46755;SDS011;32506;52.826;-1.192;2023-03-05T04:12:28;8.05;;;5.28;;
46755;SDS011;32506;52.826;-1.192;2023-03-05T04:14:53;8.43;;;5.50;;
46755;SDS011;32506;52.826;-1.192;2023-03-05T04:17:19;11.95;;;5.95;;
46755;SDS011;32506;52.826;-1.192;2023-03-05T04:19:44;8.48;;;5.63;;
46755;SDS011;32506;52.826;-1.192;2023-03-05T04:22:10;9.90;;;6.07;;
46755;SDS011;32506;52.826;-1.192;2023-03-05T04:24:40;7.40;;;5.75;;
46755;SDS011;32506;52.826;-1.192;2023-03-05T04:27:06;9.27;;;5.63;;
46755;SDS011;32506;52.826;-1.192;2023-03-05T04:29:32;9.57;;;5.57;;
46755;SDS011;32506;52.826;-1.192;2023-03-05T04:31:58;10.73;;;6.40;;
46755;SDS011;32506;52.826;-1.192;2023-03-05T04:34:23;7.53;;;5.68;;
46755;SDS011;32506;52.826;-1.192;2023-03-05T04:36:49;7.82;;;5.30;;
46755;SDS011;32506;52.826;-1.192;2023-03-05T04:39:14;9.30;;;5.82;;
46755;SDS011;32506;52.826;-1.192;2023-03-05T04:41:40;10.88;;;5.53;;
46755;SDS011;32506;52.826;-1.192;2023-03-05T04:44:05;6.95;;;4.88;;
46755;SDS011;32506;52.826;-1.192;2023-03-05T04:46:31;8.20;;;5.20;;
46755;SDS011;32506;52.826;-1.192;2023-03-05T04:48:57;7.22;;;5.50;;
46755;SDS011;32506;52.826;-1.192;2023-03-05T04:51:23;8.45;;;5.28;;
46755;SDS011;32506;52.826;-1.192;2023-03-05T04:53:48;6.80;;;5.07;;
46755;SDS011;32506;52.826;-1.192;2023-03-05T04:56:14;8.75;;;5.38;;
46755;SDS011;32506;52.826;-1.192;2023-03-05T04:58:40;9.40;;;5.50;;
46755;SDS011;32506;52.826;-1.192;2023-03-05T05:01:05;6.68;;;5.03;;
46755;SDS011;32506;52.826;-1.192;2023-03-05T05:03:31;8.13;;;5.50;;
46755;SDS011;32506;52.826;-1.192;2023-03-05T05:05:58;8.55;;;5.47;;
46755;SDS011;32506;52.826;-1.192;2023-03-05T05:08:24;8.60;;;5.18;;
46755;SDS011;32506;52.826;-1.192;2023-03-05T05:10:55;7.47;;;5.32;;
46755;SDS011;32506;52.826;-1.192;2023-03-05T05:13:28;8.50;;;5.38;;
46755;SDS011;32506;52.826;-1.192;2023-03-05T05:15:54;8.05;;;5.30;;
46755;SDS011;32506;52.826;-1.192;2023-03-05T05:18:20;10.13;;;5.82;;
46755;SDS011;32506;52.826;-1.192;2023-03-05T05:20:45;7.25;;;5.60;;
46755;SDS011;32506;52.826;-1.192;2023-03-05T05:23:11;7.30;;;5.43;;
46755;SDS011;32506;52.826;-1.192;2023-03-05T05:25:37;8.27;;;5.65;;
46755;SDS011;32506;52.826;-1.192;2023-03-05T05:28:02;7.32;;;5.13;;
46755;SDS011;32506;52.826;-1.192;2023-03-05T05:30:28;10.73;;;5.45;;
46755;SDS011;32506;52.826;-1.192;2023-03-05T05:32:53;8.70;;;6.05;;
46755;SDS011;32506;52.826;-1.192;2023-03-05T05:35:19;8.60;;;5.38;;
46755;SDS011;32506;52.826;-1.192;2023-03-05T05:37:44;7.95;;;5.38;;
46755;SDS011;32506;52.826;-1.192;2023-03-05T05:40:10;8.73;;;5.30;;
46755;SDS011;32506;52.826;-1.192;2023-03-05T05:42:36;8.02;;;5.25;;
46755;SDS011;32506;52.826;-1.192;2023-03-05T05:45:01;9.43;;;5.20;;
46755;SDS011;32506;52.826;-1.192;2023-03-05T05:47:27;9.20;;;5.32;;
46755;SDS011;32506;52.826;-1.192;2023-03-05T05:49:54;11.10;;;7.10;;
46755;SDS011;32506;52.826;-1.192;2023-03-05T05:52:20;6.10;;;4.93;;
46755;SDS011;32506;52.826;-1.192;2023-03-05T05:54:46;9.10;;;5.68;;
46755;SDS011;32506;52.826;-1.192;2023-03-05T05:57:11;7.22;;;5.25;;
46755;SDS011;32506;52.826;-1.192;2023-03-05T05:59:37;9.15;;;5.32;;
46755;SDS011;32506;52.826;-1.192;2023-03-05T06:02:03;8.57;;;5.95;;
46755;SDS011;32506;52.826;-1.192;2023-03-05T06:04:29;7.80;;;5.45;;
46755;SDS011;32506;52.826;-1.192;2023-03-05T06:06:54;9.38;;;6.03;;
46755;SDS011;32506;52.826;-1.192;2023-03-05T06:09:20;7.07;;;5.35;;
46755;SDS011;32506;52.826;-1.192;2023-03-05T06:11:45;10.20;;;6.40;;
46755;SDS011;32506;52.826;-1.192;2023-03-05T06:14:11;8.02;;;5.88;;
46755;SDS011;32506;52.826;-1.192;2023-03-05T06:16:37;9.55;;;5.82;;
46755;SDS011;32506;52.826;-1.192;2023-03-05T06:19:03;8.38;;;5.97;;
46755;SDS011;32506;52.826;-1.192;2023-03-05T06:21:30;8.48;;;6.10;;
46755;SDS011;32506;52.826;-1.192;2023-03-05T06:23:56;8.35;;;5.65;;
46755;SDS011;32506;52.826;-1.192;2023-03-05T06:26:22;8.48;;;5.70;;
46755;SDS011;32506;52.826;-1.192;2023-03-05T06:28:49;7.55;;;5.20;;
46755;SDS011;32506;52.826;-1.192;2023-03-05T06:31:17;9.20;;;5.95;;
46755;SDS011;32506;52.826;-1.192;2023-03-05T06:33:46;8.27;;;5.57;;
46755;SDS011;32506;52.826;-1.192;2023-03-05T06:36:12;8.27;;;5.82;;
46755;SDS011;32506;52.826;-1.192;2023-03-05T06:38:40;9.30;;;5.50;;
46755;SDS011;32506;52.826;-1.192;2023-03-05T06:41:08;9.13;;;5.55;;
46755;SDS011;32506;52.826;-1.192;2023-03-05T06:43:39;10.98;;;6.20;;
46755;SDS011;32506;52.826;-1.192;2023-03-05T06:46:07;8.52;;;6.38;;
46755;SDS011;32506;52.826;-1.192;2023-03-05T06:48:36;9.65;;;6.85;;
46755;SDS011;32506;52.826;-1.192;2023-03-05T06:51:02;11.38;;;6.07;;
46755;SDS011;32506;52.826;-1.192;2023-03-05T06:53:28;9.93;;;6.15;;
46755;SDS011;32506;52.826;-1.192;2023-03-05T06:55:54;10.40;;;7.15;;
46755;SDS011;32506;52.826;-1.192;2023-03-05T06:58:20;11.85;;;6.68;;
46755;SDS011;32506;52.826;-1.192;2023-03-05T07:00:46;11.00;;;5.85;;
46755;SDS011;32506;52.826;-1.192;2023-03-05T07:03:11;10.60;;;6.38;;
46755;SDS011;32506;52.826;-1.192;2023-03-05T07:05:38;9.13;;;5.57;;
46755;SDS011;32506;52.826;-1.192;2023-03-05T07:08:04;9.63;;;5.95;;
46755;SDS011;32506;52.826;-1.192;2023-03-05T07:10:29;7.75;;;5.57;;
46755;SDS011;32506;52.826;-1.192;2023-03-05T07:12:55;8.80;;;5.95;;
46755;SDS011;32506;52.826;-1.192;2023-03-05T07:15:20;9.32;;;5.35;;
46755;SDS011;32506;52.826;-1.192;2023-03-05T07:17:46;9.25;;;5.93;;
46755;SDS011;32506;52.826;-1.192;2023-03-05T07:20:12;9.20;;;5.85;;
46755;SDS011;32506;52.826;-1.192;2023-03-05T07:22:37;10.65;;;7.03;;
46755;SDS011;32506;52.826;-1.192;2023-03-05T07:25:03;8.35;;;6.25;;
46755;SDS011;32506;52.826;-1.192;2023-03-05T07:27:29;8.93;;;5.28;;
46755;SDS011;32506;52.826;-1.192;2023-03-05T07:29:58;8.75;;;5.70;;
46755;SDS011;32506;52.826;-1.192;2023-03-05T07:32:23;9.60;;;5.50;;
46755;SDS011;32506;52.826;-1.192;2023-03-05T07:34:49;7.20;;;6.40;;
46755;SDS011;32506;52.826;-1.192;2023-03-05T07:37:14;7.97;;;5.72;;
46755;SDS011;32506;52.826;-1.192;2023-03-05T07:39:42;9.45;;;5.80;;
46755;SDS011;32506;52.826;-1.192;2023-03-05T07:42:07;6.65;;;5.75;;
46755;SDS011;32506;52.826;-1.192;2023-03-05T07:44:33;9.80;;;6.28;;
46755;SDS011;32506;52.826;-1.192;2023-03-05T07:46:58;9.27;;;5.22;;
46755;SDS011;32506;52.826;-1.192;2023-03-05T07:49:24;9.98;;;5.90;;
46755;SDS011;32506;52.826;-1.192;2023-03-05T07:51:49;9.70;;;7.20;;
46755;SDS011;32506;52.826;-1.192;2023-03-05T07:54:15;9.30;;;6.05;;
46755;SDS011;32506;52.826;-1.192;2023-03-05T07:56:40;7.95;;;5.68;;
46755;SDS011;32506;52.826;-1.192;2023-03-05T07:59:07;8.05;;;5.97;;
46755;SDS011;32506;52.826;-1.192;2023-03-05T08:01:36;8.40;;;5.88;;
46755;SDS011;32506;52.826;-1.192;2023-03-05T08:04:02;8.45;;;5.95;;
46755;SDS011;32506;52.826;-1.192;2023-03-05T08:06:28;6.88;;;5.82;;
46755;SDS011;32506;52.826;-1.192;2023-03-05T08:08:54;10.20;;;5.72;;
46755;SDS011;32506;52.826;-1.192;2023-03-05T08:11:21;8.82;;;5.25;;
46755;SDS011;32506;52.826;-1.192;2023-03-05T08:13:46;8.15;;;6.10;;
46755;SDS011;32506;52.826;-1.192;2023-03-05T08:16:13;8.30;;;5.20;;
46755;SDS011;32506;52.826;-1.192;2023-03-05T08:18:40;8.18;;;5.80;;
46755;SDS011;32506;52.826;-1.192;2023-03-05T08:21:14;8.18;;;5.28;;
46755;SDS011;32506;52.826;-1.192;2023-03-05T08:23:43;8.93;;;5.10;;
46755;SDS011;32506;52.826;-1.192;2023-03-05T08:26:15;7.78;;;5.43;;
46755;SDS011;32506;52.826;-1.192;2023-03-05T08:28:42;7.78;;;5.00;;
46755;SDS011;32506;52.826;-1.192;2023-03-05T08:31:09;7.18;;;4.65;;
46755;SDS011;32506;52.826;-1.192;2023-03-05T08:33:36;8.00;;;4.82;;
46755;SDS011;32506;52.826;-1.192;2023-03-05T08:36:02;9.85;;;5.55;;
46755;SDS011;32506;52.826;-1.192;2023-03-05T08:38:27;6.53;;;4.28;;
46755;SDS011;32506;52.826;-1.192;2023-03-05T08:40:53;6.70;;;4.25;;
46755;SDS011;32506;52.826;-1.192;2023-03-05T08:43:18;6.18;;;4.43;;
46755;SDS011;32506;52.826;-1.192;2023-03-05T08:45:44;6.22;;;4.05;;
46755;SDS011;32506;52.826;-1.192;2023-03-05T08:48:11;6.60;;;3.58;;
46755;SDS011;32506;52.826;-1.192;2023-03-05T08:50:37;4.72;;;3.53;;
46755;SDS011;32506;52.826;-1.192;2023-03-05T08:53:02;5.63;;;3.85;;
46755;SDS011;32506;52.826;-1.192;2023-03-05T08:55:28;6.50;;;3.40;;
46755;SDS011;32506;52.826;-1.192;2023-03-05T08:57:53;5.82;;;3.58;;
46755;SDS011;32506;52.826;-1.192;2023-03-05T09:00:19;4.82;;;3.15;;
46755;SDS011;32506;52.826;-1.192;2023-03-05T09:02:45;4.45;;;3.08;;
46755;SDS011;32506;52.826;-1.192;2023-03-05T09:05:10;6.28;;;3.72;;
46755;SDS011;32506;52.826;-1.192;2023-03-05T09:07:35;6.05;;;3.67;;
46755;SDS011;32506;52.826;-1.192;2023-03-05T09:10:02;6.07;;;2.78;;
46755;SDS011;32506;52.826;-1.192;2023-03-05T09:12:29;6.65;;;3.63;;
46755;SDS011;32506;52.826;-1.192;2023-03-05T09:14:55;4.78;;;3.47;;
46755;SDS011;32506;52.826;-1.192;2023-03-05T09:17:21;5.20;;;3.17;;
46755;SDS011;32506;52.826;-1.192;2023-03-05T09:19:47;5.68;;;3.30;;
46755;SDS011;32506;52.826;-1.192;2023-03-05T09:22:13;4.85;;;2.70;;
46755;SDS011;32506;52.826;-1.192;2023-03-05T09:24:38;4.95;;;2.90;;
46755;SDS011;32506;52.826;-1.192;2023-03-05T09:27:04;6.57;;;3.17;;
46755;SDS011;32506;52.826;-1.192;2023-03-05T09:29:29;5.75;;;3.45;;
46755;SDS011;32506;52.826;-1.192;2023-03-05T09:31:55;5.93;;;3.58;;
46755;SDS011;32506;52.826;-1.192;2023-03-05T09:34:21;5.82;;;3.60;;
46755;SDS011;32506;52.826;-1.192;2023-03-05T09:36:48;5.68;;;3.75;;
46755;SDS011;32506;52.826;-1.192;2023-03-05T09:39:13;6.18;;;3.60;;
46755;SDS011;32506;52.826;-1.192;2023-03-05T09:53:06;8.55;;;4.55;;
46755;SDS011;32506;52.826;-1.192;2023-03-05T09:55:39;11.38;;;5.57;;
46755;SDS011;32506;52.826;-1.192;2023-03-05T10:01:12;8.32;;;4.82;;
46755;SDS011;32506;52.826;-1.192;2023-03-05T10:12:01;9.55;;;3.97;;
46755;SDS011;32506;52.826;-1.192;2023-03-05T10:14:31;5.47;;;3.78;;
46755;SDS011;32506;52.826;-1.192;2023-03-05T10:28:00;5.88;;;3.33;;
46755;SDS011;32506;52.826;-1.192;2023-03-05T10:44:20;4.53;;;2.72;;
46755;SDS011;32506;52.826;-1.192;2023-03-05T10:46:56;4.38;;;2.75;;
46755;SDS011;32506;52.826;-1.192;2023-03-05T10:52:03;4.38;;;2.60;;
46755;SDS011;32506;52.826;-1.192;2023-03-05T10:54:30;5.47;;;2.85;;
46755;SDS011;32506;52.826;-1.192;2023-03-05T10:57:02;3.95;;;2.90;;
46755;SDS011;32506;52.826;-1.192;2023-03-05T10:59:27;4.93;;;2.90;;
46755;SDS011;32506;52.826;-1.192;2023-03-05T11:02:06;4.57;;;2.28;;
46755;SDS011;32506;52.826;-1.192;2023-03-05T11:04:36;4.00;;;3.00;;
46755;SDS011;32506;52.826;-1.192;2023-03-05T11:07:07;4.20;;;2.85;;
46755;SDS011;32506;52.826;-1.192;2023-03-05T11:12:33;3.25;;;2.38;;
46755;SDS011;32506;52.826;-1.192;2023-03-05T11:25:28;3.17;;;2.22;;
46755;SDS011;32506;52.826;-1.192;2023-03-05T11:27:54;3.35;;;2.40;;
46755;SDS011;32506;52.826;-1.192;2023-03-05T11:30:26;3.35;;;2.40;;
46755;SDS011;32506;52.826;-1.192;2023-03-05T11:33:17;4.47;;;2.60;;
46755;SDS011;32506;52.826;-1.192;2023-03-05T11:35:45;3.95;;;2.22;;
46755;SDS011;32506;52.826;-1.192;2023-03-05T11:38:19;4.80;;;2.55;;
46755;SDS011;32506;52.826;-1.192;2023-03-05T11:40:50;2.83;;;1.95;;
46755;SDS011;32506;52.826;-1.192;2023-03-05T11:43:18;3.78;;;2.60;;
46755;SDS011;32506;52.826;-1.192;2023-03-05T11:45:46;4.68;;;2.13;;
46755;SDS011;32506;52.826;-1.192;2023-03-05T11:48:17;4.18;;;2.70;;
46755;SDS011;32506;52.826;-1.192;2023-03-05T11:51:07;3.90;;;2.45;;
46755;SDS011;32506;52.826;-1.192;2023-03-05T11:53:40;4.53;;;2.58;;
46755;SDS011;32506;52.826;-1.192;2023-03-05T11:56:14;2.63;;;2.00;;
46755;SDS011;32506;52.826;-1.192;2023-03-05T12:01:33;3.72;;;2.08;;
46755;SDS011;32506;52.826;-1.192;2023-03-05T12:04:09;4.38;;;2.20;;
46755;SDS011;32506;52.826;-1.192;2023-03-05T12:06:37;3.10;;;2.10;;
46755;SDS011;32506;52.826;-1.192;2023-03-05T12:15:18;3.53;;;2.03;;
46755;SDS011;32506;52.826;-1.192;2023-03-05T12:20:57;4.55;;;2.30;;
46755;SDS011;32506;52.826;-1.192;2023-03-05T12:23:42;5.65;;;2.40;;
46755;SDS011;32506;52.826;-1.192;2023-03-05T12:26:12;5.00;;;2.55;;
46755;SDS011;32506;52.826;-1.192;2023-03-05T12:33:53;5.40;;;2.70;;
46755;SDS011;32506;52.826;-1.192;2023-03-05T12:38:47;3.95;;;2.10;;
46755;SDS011;32506;52.826;-1.192;2023-03-05T12:41:31;4.88;;;2.85;;
46755;SDS011;32506;52.826;-1.192;2023-03-05T12:46:30;5.03;;;2.13;;
46755;SDS011;32506;52.826;-1.192;2023-03-05T12:51:54;5.32;;;2.13;;
46755;SDS011;32506;52.826;-1.192;2023-03-05T12:54:26;2.90;;;1.88;;
46755;SDS011;32506;52.826;-1.192;2023-03-05T12:57:11;4.28;;;2.30;;
46755;SDS011;32506;52.826;-1.192;2023-03-05T12:59:53;3.35;;;1.80;;
46755;SDS011;32506;52.826;-1.192;2023-03-05T13:02:30;2.83;;;1.80;;
46755;SDS011;32506;52.826;-1.192;2023-03-05T13:05:02;2.30;;;1.63;;
46755;SDS011;32506;52.826;-1.192;2023-03-05T13:07:41;2.08;;;1.40;;
46755;SDS011;32506;52.826;-1.192;2023-03-05T13:10:19;2.85;;;1.85;;
46755;SDS011;32506;52.826;-1.192;2023-03-05T13:15:20;3.58;;;1.90;;
46755;SDS011;32506;52.826;-1.192;2023-03-05T13:17:57;3.85;;;2.00;;
46755;SDS011;32506;52.826;-1.192;2023-03-05T13:20:28;2.25;;;1.45;;
46755;SDS011;32506;52.826;-1.192;2023-03-05T13:23:01;3.38;;;1.52;;
46755;SDS011;32506;52.826;-1.192;2023-03-05T13:25:27;2.80;;;1.75;;
46755;SDS011;32506;52.826;-1.192;2023-03-05T13:27:52;2.50;;;1.50;;
46755;SDS011;32506;52.826;-1.192;2023-03-05T13:30:49;2.53;;;1.55;;
46755;SDS011;32506;52.826;-1.192;2023-03-05T13:33:18;2.92;;;1.70;;
46755;SDS011;32506;52.826;-1.192;2023-03-05T13:35:48;2.55;;;1.83;;
46755;SDS011;32506;52.826;-1.192;2023-03-05T13:38:21;4.55;;;2.03;;
46755;SDS011;32506;52.826;-1.192;2023-03-05T13:46:21;3.05;;;1.63;;
46755;SDS011;32506;52.826;-1.192;2023-03-05T13:48:53;3.63;;;1.60;;
46755;SDS011;32506;52.826;-1.192;2023-03-05T13:51:19;2.63;;;1.60;;
46755;SDS011;32506;52.826;-1.192;2023-03-05T13:53:44;2.45;;;1.65;;
46755;SDS011;32506;52.826;-1.192;2023-03-05T13:56:12;2.17;;;1.50;;
46755;SDS011;32506;52.826;-1.192;2023-03-05T13:58:44;2.70;;;1.65;;
46755;SDS011;32506;52.826;-1.192;2023-03-05T14:03:43;2.70;;;1.77;;
46755;SDS011;32506;52.826;-1.192;2023-03-05T14:06:14;3.55;;;2.03;;
46755;SDS011;32506;52.826;-1.192;2023-03-05T14:08:47;4.70;;;1.83;;
46755;SDS011;32506;52.826;-1.192;2023-03-05T14:11:15;2.55;;;1.48;;
46755;SDS011;32506;52.826;-1.192;2023-03-05T14:13:42;2.67;;;1.73;;
46755;SDS011;32506;52.826;-1.192;2023-03-05T14:16:09;1.67;;;1.27;;
46755;SDS011;32506;52.826;-1.192;2023-03-05T14:18:53;3.05;;;1.75;;
46755;SDS011;32506;52.826;-1.192;2023-03-05T14:21:20;2.45;;;1.55;;
46755;SDS011;32506;52.826;-1.192;2023-03-05T14:23:48;3.00;;;1.65;;
46755;SDS011;32506;52.826;-1.192;2023-03-05T14:26:22;2.92;;;1.83;;
46755;SDS011;32506;52.826;-1.192;2023-03-05T14:31:33;2.67;;;1.55;;
46755;SDS011;32506;52.826;-1.192;2023-03-05T14:34:12;3.22;;;1.75;;
46755;SDS011;32506;52.826;-1.192;2023-03-05T14:36:50;2.88;;;1.48;;
46755;SDS011;32506;52.826;-1.192;2023-03-05T14:39:27;2.15;;;1.30;;
46755;SDS011;32506;52.826;-1.192;2023-03-05T14:42:13;2.00;;;1.27;;
46755;SDS011;32506;52.826;-1.192;2023-03-05T14:44:51;2.30;;;1.48;;
46755;SDS011;32506;52.826;-1.192;2023-03-05T14:47:17;3.33;;;1.35;;
46755;SDS011;32506;52.826;-1.192;2023-03-05T14:49:42;2.88;;;1.77;;
46755;SDS011;32506;52.826;-1.192;2023-03-05T14:52:09;2.72;;;1.33;;
46755;SDS011;32506;52.826;-1.192;2023-03-05T14:54:39;3.90;;;2.13;;
46755;SDS011;32506;52.826;-1.192;2023-03-05T14:57:05;2.15;;;1.55;;
46755;SDS011;32506;52.826;-1.192;2023-03-05T14:59:30;1.88;;;1.35;;
46755;SDS011;32506;52.826;-1.192;2023-03-05T15:01:56;2.13;;;1.35;;
46755;SDS011;32506;52.826;-1.192;2023-03-05T15:04:22;7.78;;;2.70;;
46755;SDS011;32506;52.826;-1.192;2023-03-05T15:06:48;5.22;;;2.85;;
46755;SDS011;32506;52.826;-1.192;2023-03-05T15:09:16;7.20;;;2.50;;
46755;SDS011;32506;52.826;-1.192;2023-03-05T15:11:45;10.23;;;2.60;;
46755;SDS011;32506;52.826;-1.192;2023-03-05T15:14:11;7.65;;;1.70;;
46755;SDS011;32506;52.826;-1.192;2023-03-05T15:16:38;6.07;;;2.55;;
46755;SDS011;32506;52.826;-1.192;2023-03-05T15:19:08;5.47;;;2.05;;
46755;SDS011;32506;52.826;-1.192;2023-03-05T15:21:36;3.63;;;1.95;;
46755;SDS011;32506;52.826;-1.192;2023-03-05T15:24:02;5.97;;;1.65;;
46755;SDS011;32506;52.826;-1.192;2023-03-05T15:26:27;3.20;;;1.73;;
46755;SDS011;32506;52.826;-1.192;2023-03-05T15:28:53;6.25;;;2.95;;
46755;SDS011;32506;52.826;-1.192;2023-03-05T15:31:18;6.00;;;2.03;;
46755;SDS011;32506;52.826;-1.192;2023-03-05T15:33:44;11.27;;;1.88;;
46755;SDS011;32506;52.826;-1.192;2023-03-05T15:36:09;6.43;;;1.75;;
46755;SDS011;32506;52.826;-1.192;2023-03-05T15:38:35;5.05;;;1.80;;
46755;SDS011;32506;52.826;-1.192;2023-03-05T15:41:03;3.83;;;1.73;;
46755;SDS011;32506;52.826;-1.192;2023-03-05T15:43:29;4.15;;;1.85;;
46755;SDS011;32506;52.826;-1.192;2023-03-05T15:45:55;4.70;;;2.22;;
46755;SDS011;32506;52.826;-1.192;2023-03-05T15:48:20;4.25;;;1.67;;
46755;SDS011;32506;52.826;-1.192;2023-03-05T15:50:46;4.47;;;1.83;;
46755;SDS011;32506;52.826;-1.192;2023-03-05T15:53:12;7.20;;;1.95;;
46755;SDS011;32506;52.826;-1.192;2023-03-05T15:55:42;4.18;;;1.48;;
46755;SDS011;32506;52.826;-1.192;2023-03-05T15:58:12;3.22;;;2.05;;
46755;SDS011;32506;52.826;-1.192;2023-03-05T16:00:40;3.97;;;2.03;;
46755;SDS011;32506;52.826;-1.192;2023-03-05T16:03:06;2.92;;;1.85;;
46755;SDS011;32506;52.826;-1.192;2023-03-05T16:05:34;7.20;;;1.88;;
46755;SDS011;32506;52.826;-1.192;2023-03-05T16:08:01;2.60;;;1.77;;
46755;SDS011;32506;52.826;-1.192;2023-03-05T16:10:27;4.78;;;1.88;;
46755;SDS011;32506;52.826;-1.192;2023-03-05T16:12:56;5.13;;;1.52;;
46755;SDS011;32506;52.826;-1.192;2023-03-05T16:15:28;4.82;;;1.70;;
46755;SDS011;32506;52.826;-1.192;2023-03-05T16:17:55;4.57;;;2.45;;
46755;SDS011;32506;52.826;-1.192;2023-03-05T16:20:23;6.65;;;2.03;;